createdAt,value
2019-01-26T00:00:17.380Z,100316.14
2019-01-26T00:02:45.656Z,100315.08
2019-01-26T00:05:13.940Z,100305.68
2019-01-26T00:07:42.226Z,100303.55
2019-01-26T00:10:10.481Z,100299.54
2019-01-26T00:12:38.766Z,100307.84
2019-01-26T00:15:12.968Z,100307.29
2019-01-26T00:17:41.245Z,100307.02
2019-01-26T00:20:10.041Z,100301.94
2019-01-26T00:22:38.331Z,100304.88
2019-01-26T00:25:06.648Z,100303.78
2019-01-26T00:27:34.929Z,100300.84
2019-01-26T00:30:05.337Z,100295.48
2019-01-26T00:32:33.675Z,100290.41
2019-01-26T00:35:01.923Z,100292.80
2019-01-26T00:37:30.207Z,100286.66
2019-01-26T00:39:58.470Z,100289.34
2019-01-26T00:42:26.754Z,100279.17
2019-01-26T00:44:55.043Z,100280.52
2019-01-26T00:47:23.329Z,100278.34
2019-01-26T00:49:51.606Z,100279.69
2019-01-26T00:52:19.867Z,100276.49
2019-01-26T00:54:48.203Z,100274.05
2019-01-26T00:57:16.458Z,100276.20
2019-01-26T00:59:44.742Z,100271.91
2019-01-26T01:02:13.053Z,100274.03
2019-01-26T01:04:41.360Z,100265.73
2019-01-26T01:07:09.655Z,100259.58
2019-01-26T01:09:37.946Z,100249.66
2019-01-26T01:12:06.242Z,100253.95
2019-01-26T01:14:34.559Z,100248.86
2019-01-26T01:17:03.201Z,100248.58
2019-01-26T01:19:31.485Z,100242.67
2019-01-26T01:21:59.764Z,100239.72
2019-01-26T01:24:28.027Z,100235.45
2019-01-26T01:26:56.461Z,100237.59
2019-01-26T01:29:24.748Z,100240.78
2019-01-26T01:31:53.002Z,100236.76
2019-01-26T01:34:21.281Z,100244.01
2019-01-26T01:36:49.586Z,100240.81
2019-01-26T01:39:17.875Z,100241.88
2019-01-26T01:41:46.130Z,100241.34
2019-01-26T01:44:14.421Z,100244.30
2019-01-26T01:46:43.076Z,100242.17
2019-01-26T01:49:11.575Z,100245.91
2019-01-26T01:51:39.856Z,100248.02
2019-01-26T01:54:08.813Z,100250.95
2019-01-26T01:56:37.072Z,100250.94
2019-01-26T01:59:05.405Z,100238.31
2019-01-26T02:01:34.617Z,100232.66
2019-01-26T02:04:02.874Z,100240.69
2019-01-26T02:06:31.172Z,100226.74
2019-01-26T02:08:59.463Z,100217.63
2019-01-26T02:11:27.737Z,100210.90
2019-01-26T02:13:56.000Z,100215.98
2019-01-26T02:16:24.444Z,100210.59
2019-01-26T02:18:53.517Z,100212.44
2019-01-26T02:21:21.768Z,100208.39
2019-01-26T02:23:50.090Z,100199.53
2019-01-26T02:26:18.363Z,100208.07
2019-01-26T02:28:46.649Z,100206.72
2019-01-26T02:31:14.917Z,100202.11
2019-01-26T02:33:43.235Z,100196.23
2019-01-26T02:36:11.490Z,100198.66
2019-01-26T02:38:39.772Z,100198.66
2019-01-26T02:41:08.039Z,100197.58
2019-01-26T02:43:36.358Z,100198.64
2019-01-26T02:46:04.619Z,100197.85
2019-01-26T02:48:32.947Z,100191.15
2019-01-26T02:51:01.235Z,100184.95
2019-01-26T02:53:29.540Z,100179.09
2019-01-26T02:55:57.817Z,100182.83
2019-01-26T02:58:26.204Z,100175.85
2019-01-26T03:00:54.471Z,100167.83
2019-01-26T03:03:22.768Z,100173.97
2019-01-26T03:05:51.046Z,100165.39
2019-01-26T03:08:19.347Z,100166.42
2019-01-26T03:10:47.626Z,100163.19
2019-01-26T03:13:15.875Z,100165.08
2019-01-26T03:15:44.152Z,100160.22
2019-01-26T03:18:12.437Z,100157.80
2019-01-26T03:20:40.707Z,100156.17
2019-01-26T03:23:09.021Z,100154.81
2019-01-26T03:25:37.859Z,100149.15
2019-01-26T03:28:06.164Z,100149.13
2019-01-26T03:30:34.434Z,100146.70
2019-01-26T03:33:04.311Z,100147.48
2019-01-26T03:35:32.614Z,100139.42
2019-01-26T03:38:00.932Z,100131.59
2019-01-26T03:40:29.182Z,100131.59
2019-01-26T03:42:57.589Z,100134.55
2019-01-26T03:45:25.858Z,100133.97
2019-01-26T03:47:54.119Z,100135.58
2019-01-26T03:50:22.426Z,100129.13
2019-01-26T03:52:50.725Z,100128.60
2019-01-26T03:55:21.136Z,100122.95
2019-01-26T03:57:49.753Z,100128.34
2019-01-26T04:00:21.333Z,100126.70
2019-01-26T04:02:49.584Z,100115.14
2019-01-26T04:05:18.632Z,100113.25
2019-01-26T04:07:47.051Z,100114.30
2019-01-26T04:10:15.795Z,100110.80
2019-01-26T04:12:44.058Z,100108.63
2019-01-26T04:15:14.454Z,100098.45
2019-01-26T04:17:42.844Z,100102.71
2019-01-26T04:20:14.033Z,100091.95
2019-01-26T04:22:42.401Z,100090.64
2019-01-26T04:25:12.331Z,100089.00
2019-01-26T04:27:40.641Z,100072.59
2019-01-26T04:30:14.827Z,100072.59
2019-01-26T04:32:43.140Z,100069.32
2019-01-26T04:35:11.833Z,100070.14
2019-01-26T04:37:40.113Z,100065.51
2019-01-26T04:40:11.029Z,100065.51
2019-01-26T04:42:39.382Z,100061.69
2019-01-26T04:45:13.318Z,100061.69
2019-01-26T04:47:41.598Z,100059.45
2019-01-26T04:50:12.500Z,100053.29
2019-01-26T04:52:40.816Z,100046.02
2019-01-26T04:55:09.083Z,100053.14
2019-01-26T04:57:37.630Z,100047.30
2019-01-26T05:00:09.373Z,100044.23
2019-01-26T05:02:37.629Z,100031.27
2019-01-26T05:05:05.916Z,100031.27
2019-01-26T05:07:34.219Z,100030.59
2019-01-26T05:10:02.494Z,100030.59
2019-01-26T05:12:30.755Z,100027.64
2019-01-26T05:14:59.112Z,100025.45
2019-01-26T05:17:27.411Z,100027.31
2019-01-26T05:19:55.694Z,100020.59
2019-01-26T05:22:23.951Z,100019.38
2019-01-26T05:24:52.234Z,100025.80
2019-01-26T05:27:20.862Z,100025.80
2019-01-26T05:29:49.132Z,100028.72
2019-01-26T05:32:17.386Z,100018.16
2019-01-26T05:34:45.689Z,100018.16
2019-01-26T05:37:13.950Z,100021.56
2019-01-26T05:39:42.207Z,100021.30
2019-01-26T05:42:10.490Z,100017.75
2019-01-26T05:44:38.746Z,100015.40
2019-01-26T05:47:07.021Z,100023.54
2019-01-26T05:49:35.283Z,100023.05
2019-01-26T05:52:03.621Z,100023.05
2019-01-26T05:54:31.899Z,100023.31
2019-01-26T05:57:00.155Z,100017.45
2019-01-26T05:59:28.487Z,100016.86
2019-01-26T06:01:56.736Z,100026.23
2019-01-26T06:04:25.064Z,100025.33
2019-01-26T06:06:53.340Z,100025.59
2019-01-26T06:09:21.682Z,100025.59
2019-01-26T06:11:49.977Z,100028.50
2019-01-26T06:14:18.299Z,100023.69
2019-01-26T06:16:46.912Z,100023.69
2019-01-26T06:19:15.163Z,100025.07
2019-01-26T06:21:43.481Z,100026.16
2019-01-26T06:24:11.885Z,100024.51
2019-01-26T06:26:40.176Z,100024.51
2019-01-26T06:29:08.429Z,100023.13
2019-01-26T06:31:36.707Z,100023.13
2019-01-26T06:34:04.961Z,100011.92
2019-01-26T06:36:33.300Z,100009.28
2019-01-26T06:39:01.602Z,100009.28
2019-01-26T06:41:30.040Z,100019.66
2019-01-26T06:43:58.285Z,100018.61
2019-01-26T06:46:26.575Z,100018.02
2019-01-26T06:48:56.547Z,100023.91
2019-01-26T06:51:24.802Z,100026.03
2019-01-26T06:53:53.368Z,100025.95
2019-01-26T06:56:21.644Z,100024.02
2019-01-26T06:58:49.972Z,100024.02
2019-01-26T07:01:18.228Z,100027.30
2019-01-26T07:03:46.505Z,100027.30
2019-01-26T07:06:18.929Z,100024.69
2019-01-26T07:08:47.384Z,100030.52
2019-01-26T07:11:15.675Z,100018.71
2019-01-26T07:13:44.048Z,100029.73
2019-01-26T07:16:13.488Z,100029.73
2019-01-26T07:18:41.784Z,100022.97
2019-01-26T07:21:10.060Z,100026.18
2019-01-26T07:23:38.318Z,100019.80
2019-01-26T07:26:06.626Z,100019.80
2019-01-26T07:28:34.931Z,100031.41
2019-01-26T07:31:03.216Z,100031.41
2019-01-26T07:33:31.492Z,100035.92
2019-01-26T07:35:59.784Z,100035.92
2019-01-26T07:38:28.087Z,100037.19
2019-01-26T07:40:56.335Z,100032.67
2019-01-26T07:43:24.663Z,100043.47
2019-01-26T07:45:52.921Z,100032.19
2019-01-26T07:48:21.193Z,100044.81
2019-01-26T07:50:49.512Z,100049.41
2019-01-26T07:53:17.826Z,100042.42
2019-01-26T07:55:46.120Z,100048.80
2019-01-26T07:58:14.397Z,100039.92
2019-01-26T08:00:42.775Z,100052.28
2019-01-26T08:03:11.199Z,100042.16
2019-01-26T08:05:39.448Z,100039.51
2019-01-26T08:08:07.705Z,100039.51
2019-01-26T08:10:35.992Z,100048.55
2019-01-26T08:13:04.282Z,100044.77
2019-01-26T08:15:33.406Z,100048.77
2019-01-26T08:18:01.666Z,100048.77
2019-01-26T08:20:29.944Z,100045.78
2019-01-26T08:22:58.201Z,100052.50
2019-01-26T08:25:26.479Z,100047.16
2019-01-26T08:27:54.779Z,100047.16
2019-01-26T08:30:24.732Z,100057.91
2019-01-26T08:32:52.988Z,100057.91
2019-01-26T08:35:21.275Z,100046.56
2019-01-26T08:37:49.603Z,100046.56
2019-01-26T08:40:21.734Z,100063.45
2019-01-26T08:42:50.047Z,100053.77
2019-01-26T08:45:19.070Z,100061.49
2019-01-26T08:47:47.528Z,100046.52
2019-01-26T08:50:18.685Z,100055.30
2019-01-26T08:52:49.215Z,100053.66
2019-01-26T08:55:18.295Z,100054.47
2019-01-26T08:57:47.086Z,100057.13
2019-01-26T09:00:18.664Z,100057.13
2019-01-26T09:02:55.493Z,100049.84
2019-01-26T09:05:34.685Z,100051.75
2019-01-26T09:08:02.973Z,100057.61
2019-01-26T09:10:31.287Z,100056.48
2019-01-26T09:13:00.173Z,100053.53
2019-01-26T09:15:28.448Z,100053.53
2019-01-26T09:17:56.699Z,100058.39
2019-01-26T09:20:25.023Z,100059.39
2019-01-26T09:22:53.260Z,100059.39
2019-01-26T09:25:21.543Z,100052.33
2019-01-26T09:27:50.072Z,100057.16
2019-01-26T09:30:21.913Z,100058.20
2019-01-26T09:32:50.205Z,100043.25
2019-01-26T09:35:18.572Z,100056.28
2019-01-26T09:37:46.836Z,100057.58
2019-01-26T09:40:20.367Z,100057.58
2019-01-26T09:42:48.644Z,100058.63
2019-01-26T09:45:20.930Z,100053.13
2019-01-26T09:47:49.267Z,100052.27
2019-01-26T09:50:17.870Z,100056.34
2019-01-26T09:52:46.146Z,100054.47
2019-01-26T09:55:17.125Z,100048.78
2019-01-26T09:57:45.405Z,100039.20
2019-01-26T10:00:19.012Z,100054.70
2019-01-26T10:02:47.283Z,100058.91
2019-01-26T10:05:15.545Z,100056.77
2019-01-26T10:07:43.867Z,100051.88
2019-01-26T10:10:14.328Z,100050.09
2019-01-26T10:12:42.574Z,100060.25
2019-01-26T10:15:26.969Z,100055.42
2019-01-26T10:17:55.285Z,100061.30
2019-01-26T10:20:26.512Z,100060.95
2019-01-26T10:22:54.867Z,100062.06
2019-01-26T10:25:23.147Z,100063.16
2019-01-26T10:27:51.404Z,100060.72
2019-01-26T10:30:26.942Z,100056.08
2019-01-26T10:32:55.196Z,100053.87
2019-01-26T10:35:25.277Z,100051.39
2019-01-26T10:37:53.519Z,100050.61
2019-01-26T10:40:23.412Z,100049.75
2019-01-26T10:42:51.685Z,100050.36
2019-01-26T10:45:19.947Z,100040.59
2019-01-26T10:47:48.260Z,100042.23
2019-01-26T10:50:16.513Z,100034.16
2019-01-26T10:52:44.821Z,100034.95
2019-01-26T10:55:13.184Z,100031.68
2019-01-26T10:57:41.440Z,100027.39
2019-01-26T11:00:13.015Z,100026.30
2019-01-26T11:02:41.336Z,100023.48
2019-01-26T11:05:09.935Z,100015.71
2019-01-26T11:07:38.194Z,100015.36
2019-01-26T11:10:09.774Z,100008.41
2019-01-26T11:12:38.019Z,100010.28
2019-01-26T11:15:09.351Z,100005.45
2019-01-26T11:17:37.604Z,100006.66
2019-01-26T11:20:12.099Z,100002.63
2019-01-26T11:22:40.355Z,100001.27
2019-01-26T11:25:11.173Z,99999.67
2019-01-26T11:27:39.461Z,99995.38
2019-01-26T11:30:13.255Z,99989.27
2019-01-26T11:32:41.505Z,99999.47
2019-01-26T11:35:13.058Z,99992.13
2019-01-26T11:37:41.334Z,99989.21
2019-01-26T11:40:12.519Z,99987.36
2019-01-26T11:42:40.838Z,99989.69
2019-01-26T11:45:15.254Z,99989.21
2019-01-26T11:47:43.562Z,99983.27
2019-01-26T11:50:13.454Z,99978.14
2019-01-26T11:52:42.018Z,99978.19
2019-01-26T11:55:14.765Z,99979.73
2019-01-26T11:57:43.018Z,99965.77
2019-01-26T12:00:25.063Z,99963.64
2019-01-26T12:02:54.981Z,99967.85
2019-01-26T12:05:24.873Z,99967.33
2019-01-26T12:07:53.161Z,99967.06
2019-01-26T12:10:21.438Z,99967.62
2019-01-26T12:12:49.734Z,99961.98
2019-01-26T12:15:18.007Z,99961.07
2019-01-26T12:17:46.298Z,99957.39
2019-01-26T12:20:16.613Z,99949.52
2019-01-26T12:22:44.902Z,99946.27
2019-01-26T12:25:13.208Z,99934.97
2019-01-26T12:27:41.454Z,99944.39
2019-01-26T12:30:14.674Z,99934.71
2019-01-26T12:32:42.901Z,99937.66
2019-01-26T12:35:14.599Z,99932.22
2019-01-26T12:37:43.822Z,99930.37
2019-01-26T12:40:14.092Z,99930.37
2019-01-26T12:42:42.340Z,99923.69
2019-01-26T12:45:16.542Z,99925.03
2019-01-26T12:47:44.821Z,99920.74
2019-01-26T12:50:13.660Z,99915.36
2019-01-26T12:52:42.462Z,99914.27
2019-01-26T12:55:13.938Z,99908.52
2019-01-26T12:57:42.222Z,99908.10
2019-01-26T13:00:13.986Z,99906.70
2019-01-26T13:02:42.315Z,99909.65
2019-01-26T13:05:10.560Z,99906.95
2019-01-26T13:07:38.886Z,99906.70
2019-01-26T13:10:22.546Z,99901.57
2019-01-26T13:12:50.989Z,99900.95
2019-01-26T13:15:19.287Z,99898.73
2019-01-26T13:17:47.589Z,99895.31
2019-01-26T13:20:16.414Z,99891.84
2019-01-26T13:22:44.683Z,99886.45
2019-01-26T13:25:17.924Z,99878.86
2019-01-26T13:27:46.210Z,99881.38
2019-01-26T13:30:16.844Z,99874.40
2019-01-26T13:32:46.558Z,99871.34
2019-01-26T13:35:14.964Z,99872.44
2019-01-26T13:37:43.275Z,99866.44
2019-01-26T13:40:20.391Z,99862.45
2019-01-26T13:42:48.705Z,99860.06
2019-01-26T13:45:17.024Z,99861.41
2019-01-26T13:47:45.328Z,99852.25
2019-01-26T13:50:13.632Z,99850.59
2019-01-26T13:52:41.880Z,99840.86
2019-01-26T13:55:15.697Z,99843.86
2019-01-26T13:57:43.949Z,99840.19
2019-01-26T14:00:18.752Z,99838.05
2019-01-26T14:02:47.006Z,99839.40
2019-01-26T14:05:15.301Z,99831.07
2019-01-26T14:07:43.564Z,99831.02
2019-01-26T14:10:15.119Z,99821.34
2019-01-26T14:12:43.444Z,99814.55
2019-01-26T14:15:13.830Z,99818.12
2019-01-26T14:17:42.112Z,99812.42
2019-01-26T14:20:24.563Z,99811.86
2019-01-26T14:22:53.096Z,99811.55
2019-01-26T14:25:21.338Z,99809.79
2019-01-26T14:27:50.390Z,99805.75
2019-01-26T14:30:30.668Z,99803.23
2019-01-26T14:32:58.962Z,99800.37
2019-01-26T14:35:27.244Z,99804.16
2019-01-26T14:37:55.513Z,99797.48
2019-01-26T14:40:23.789Z,99788.06
2019-01-26T14:42:54.494Z,99790.44
2019-01-26T14:45:22.049Z,99792.09
2019-01-26T14:47:50.355Z,99785.67
2019-01-26T14:50:19.395Z,99777.91
2019-01-26T14:52:47.782Z,99775.75
2019-01-26T14:55:25.278Z,99767.45
2019-01-26T14:57:53.543Z,99765.36
2019-01-26T15:00:24.459Z,99765.47
2019-01-26T15:02:52.809Z,99758.46
2019-01-26T15:05:21.061Z,99754.95
2019-01-26T15:07:49.361Z,99744.25
2019-01-26T15:10:17.727Z,99752.88
2019-01-26T15:12:45.968Z,99751.28
2019-01-26T15:15:16.790Z,99745.12
2019-01-26T15:17:45.044Z,99742.55
2019-01-26T15:20:16.196Z,99736.71
2019-01-26T15:22:44.479Z,99729.45
2019-01-26T15:25:12.789Z,99733.23
2019-01-26T15:27:41.068Z,99735.93
2019-01-26T15:30:18.556Z,99724.80
2019-01-26T15:32:46.866Z,99723.27
2019-01-26T15:35:15.133Z,99720.33
2019-01-26T15:37:43.822Z,99719.81
2019-01-26T15:40:13.127Z,99721.84
2019-01-26T15:42:41.435Z,99723.43
2019-01-26T15:45:13.003Z,99719.45
2019-01-26T15:47:41.252Z,99714.69
2019-01-26T15:50:13.218Z,99715.22
2019-01-26T15:52:42.473Z,99708.28
2019-01-26T15:55:19.326Z,99703.48
2019-01-26T15:57:47.628Z,99685.75
2019-01-26T16:00:22.027Z,99690.09
2019-01-26T16:02:50.294Z,99687.71
2019-01-26T16:05:18.572Z,99679.11
2019-01-26T16:07:46.873Z,99676.59
2019-01-26T16:10:21.076Z,99677.52
2019-01-26T16:12:49.370Z,99674.32
2019-01-26T16:15:20.127Z,99671.10
2019-01-26T16:17:48.421Z,99667.13
2019-01-26T16:20:20.368Z,99660.20
2019-01-26T16:22:48.910Z,99655.14
2019-01-26T16:25:17.296Z,99657.32
2019-01-26T16:27:45.677Z,99662.22
2019-01-26T16:30:22.898Z,99653.12
2019-01-26T16:32:51.145Z,99650.18
2019-01-26T16:35:19.599Z,99646.40
2019-01-26T16:37:47.990Z,99635.08
2019-01-26T16:40:25.083Z,99640.77
2019-01-26T16:42:53.706Z,99630.38
2019-01-26T16:45:27.885Z,99623.47
2019-01-26T16:47:56.195Z,99623.47
2019-01-26T16:50:27.767Z,99621.39
2019-01-26T16:52:56.497Z,99621.92
2019-01-26T16:55:24.754Z,99601.29
2019-01-26T16:57:53.096Z,99594.57
2019-01-26T17:00:30.583Z,99587.91
2019-01-26T17:02:58.858Z,99585.47
2019-01-26T17:05:27.203Z,99584.71
2019-01-26T17:07:55.549Z,99565.65
2019-01-26T17:10:23.817Z,99566.59
2019-01-26T17:12:52.140Z,99566.59
2019-01-26T17:15:20.444Z,99560.44
2019-01-26T17:17:48.715Z,99559.63
2019-01-26T17:20:20.244Z,99556.95
2019-01-26T17:22:48.533Z,99551.34
2019-01-26T17:25:16.828Z,99538.13
2019-01-26T17:27:45.114Z,99538.13
2019-01-26T17:30:16.414Z,99534.97
2019-01-26T17:32:44.938Z,99531.31
2019-01-26T17:35:13.198Z,99518.66
2019-01-26T17:37:41.461Z,99514.38
2019-01-26T17:40:13.294Z,99510.30
2019-01-26T17:42:41.676Z,99510.30
2019-01-26T17:45:11.608Z,99509.98
2019-01-26T17:47:39.874Z,99498.73
2019-01-26T17:50:11.387Z,99498.73
2019-01-26T17:52:40.502Z,99499.55
2019-01-26T17:55:11.856Z,99492.33
2019-01-26T17:57:40.504Z,99485.61
2019-01-26T18:00:19.272Z,99482.14
2019-01-26T18:02:47.523Z,99472.80
2019-01-26T18:05:15.817Z,99472.80
2019-01-26T18:07:44.096Z,99461.94
2019-01-26T18:10:15.483Z,99460.96
2019-01-26T18:12:43.731Z,99460.96
2019-01-26T18:15:14.074Z,99451.06
2019-01-26T18:17:44.703Z,99450.22
2019-01-26T18:20:16.126Z,99442.16
2019-01-26T18:22:44.428Z,99434.38
2019-01-26T18:25:12.698Z,99436.59
2019-01-26T18:27:40.977Z,99429.57
2019-01-26T18:30:13.023Z,99422.85
2019-01-26T18:32:41.321Z,99422.85
2019-01-26T18:35:13.848Z,99412.67
2019-01-26T18:37:42.192Z,99412.67
2019-01-26T18:40:13.648Z,99396.87
2019-01-26T18:42:41.919Z,99405.33
2019-01-26T18:45:19.349Z,99395.15
2019-01-26T18:47:47.687Z,99390.37
2019-01-26T18:50:18.954Z,99390.00
2019-01-26T18:52:47.228Z,99382.31
2019-01-26T18:55:15.505Z,99380.66
2019-01-26T18:57:43.764Z,99380.66
2019-01-26T19:00:15.422Z,99387.31
2019-01-26T19:02:43.810Z,99382.44
2019-01-26T19:05:15.347Z,99378.72
2019-01-26T19:07:43.640Z,99361.07
2019-01-26T19:10:13.447Z,99357.67
2019-01-26T19:12:41.762Z,99348.27
2019-01-26T19:15:13.506Z,99347.64
2019-01-26T19:17:41.896Z,99339.02
2019-01-26T19:20:12.234Z,99331.71
2019-01-26T19:22:40.499Z,99331.71
2019-01-26T19:25:12.005Z,99327.50
2019-01-26T19:27:40.440Z,99323.00
2019-01-26T19:30:12.255Z,99310.41
2019-01-26T19:32:40.550Z,99308.25
2019-01-26T19:35:10.014Z,99308.25
2019-01-26T19:37:38.348Z,99305.45
2019-01-26T19:40:12.758Z,99305.45
2019-01-26T19:42:41.026Z,99303.32
2019-01-26T19:45:12.069Z,99293.67
2019-01-26T19:47:40.324Z,99293.67
2019-01-26T19:50:12.026Z,99282.08
2019-01-26T19:52:40.553Z,99271.97
2019-01-26T19:55:08.878Z,99267.30
2019-01-26T19:57:37.156Z,99263.28
2019-01-26T20:00:08.491Z,99263.28
2019-01-26T20:02:36.754Z,99239.80
2019-01-26T20:05:08.598Z,99235.52
2019-01-26T20:07:37.185Z,99235.52
2019-01-26T20:10:09.465Z,99229.79
2019-01-26T20:12:40.311Z,99229.57
2019-01-26T20:15:14.258Z,99216.98
2019-01-26T20:17:44.323Z,99220.23
2019-01-26T20:20:18.889Z,99209.81
2019-01-26T20:22:48.064Z,99207.66
2019-01-26T20:25:16.322Z,99195.18
2019-01-26T20:27:44.732Z,99194.48
2019-01-26T20:30:24.650Z,99192.51
2019-01-26T20:32:52.969Z,99192.51
2019-01-26T20:35:21.287Z,99171.52
2019-01-26T20:37:49.686Z,99163.14
2019-01-26T20:40:18.648Z,99152.66
2019-01-26T20:42:46.977Z,99152.66
2019-01-26T20:45:20.680Z,99139.02
2019-01-26T20:47:48.987Z,99139.02
2019-01-26T20:50:18.128Z,99134.73
2019-01-26T20:52:46.550Z,99123.46
2019-01-26T20:55:14.880Z,99122.82
2019-01-26T20:57:43.140Z,99114.84
2019-01-26T21:00:29.042Z,99104.72
2019-01-26T21:02:57.374Z,99104.72
2019-01-26T21:05:25.799Z,99089.73
2019-01-26T21:07:54.445Z,99089.73
2019-01-26T21:10:25.107Z,99080.39
2019-01-26T21:12:53.360Z,99080.39
2019-01-26T21:15:21.755Z,99066.50
2019-01-26T21:17:50.038Z,99066.50
2019-01-26T21:20:20.977Z,99055.36
2019-01-26T21:22:49.369Z,99055.36
2019-01-26T21:25:17.639Z,99049.91
2019-01-26T21:27:45.923Z,99047.83
2019-01-26T21:30:19.681Z,99038.91
2019-01-26T21:32:47.984Z,99038.91
2019-01-26T21:35:16.230Z,99037.58
2019-01-26T21:37:44.499Z,99034.61
2019-01-26T21:40:21.232Z,99015.23
2019-01-26T21:42:49.611Z,99015.23
2019-01-26T21:45:18.207Z,99013.73
2019-01-26T21:47:46.459Z,99010.63
2019-01-26T21:50:19.874Z,98995.08
2019-01-26T21:52:48.175Z,98995.08
2019-01-26T21:55:16.476Z,98999.31
2019-01-26T21:57:44.732Z,98969.83
2019-01-26T22:00:15.934Z,98980.88
2019-01-26T22:02:44.320Z,98967.67
2019-01-26T22:05:12.945Z,98965.21
2019-01-26T22:07:41.208Z,98965.21
2019-01-26T22:10:15.516Z,98964.08
2019-01-26T22:12:43.764Z,98953.23
2019-01-26T22:15:17.703Z,98946.52
2019-01-26T22:17:46.518Z,98934.24
2019-01-26T22:20:17.684Z,98939.77
2019-01-26T22:22:46.416Z,98941.12
2019-01-26T22:25:14.882Z,98933.59
2019-01-26T22:27:43.136Z,98937.95
2019-01-26T22:30:14.497Z,98939.30
2019-01-26T22:32:42.775Z,98924.74
2019-01-26T22:35:11.033Z,98922.05
2019-01-26T22:37:39.310Z,98912.19
2019-01-26T22:40:10.850Z,98912.19
2019-01-26T22:42:39.103Z,98902.66
2019-01-26T22:45:10.481Z,98902.66
2019-01-26T22:47:38.795Z,98900.55
2019-01-26T22:50:16.434Z,98889.22
2019-01-26T22:52:44.784Z,98887.36
2019-01-26T22:55:15.397Z,98886.83
2019-01-26T22:57:43.697Z,98884.14
2019-01-26T23:00:55.313Z,98879.78
2019-01-26T23:03:42.288Z,98868.66
2019-01-26T23:06:30.397Z,98857.01
2019-01-26T23:09:01.898Z,98864.33
2019-01-26T23:11:53.202Z,98855.48
2019-01-26T23:14:42.742Z,98840.45
2019-01-26T23:17:14.282Z,98825.21
2019-01-26T23:19:51.890Z,98820.13
2019-01-26T23:22:49.117Z,98825.66
2019-01-26T23:25:23.063Z,98804.56
2019-01-26T23:27:54.706Z,98809.38
2019-01-26T23:30:28.791Z,98798.74
2019-01-26T23:32:57.059Z,98793.91
2019-01-26T23:35:25.338Z,98793.91
2019-01-26T23:37:53.601Z,98795.63
2019-01-26T23:40:21.927Z,98787.08
2019-01-26T23:42:50.206Z,98774.41
2019-01-26T23:45:18.480Z,98776.66
2019-01-26T23:47:46.727Z,98761.82
2019-01-26T23:50:15.074Z,98776.89
2019-01-26T23:52:43.977Z,98767.16
2019-01-26T23:55:12.223Z,98765.81
2019-01-26T23:57:40.528Z,98765.00
